Praia, Cape Verde
Current Conditions -  °F | °C
As of 4:00 AM on Tuesday 23 Dec 2014 (Local Time) from GVNP Reporting Station
Clear Clear  
Wind Chill: 66°   Ceiling: Unl
Heat Index: 66°   Visibility: 6mi
Dew Point: 63°   Wind: 5mph
Humidity: 88%   Direction: 360°N
Pressure: 29.97"   Gusts: NA
Location:  14.93°N, 23.54°W
Report Text: GVNP 230500Z 36004KT CAVOK 19/17 Q1015 NOSIG
Loading
Personal Weather Stations






























Interactive Weather Map New forecast layout! Learn more

10-Day Weather Forecast

Advertisements
Track Severe Weather on mobile